Time;durP1;ratioP1;P1;durP2;ratioP2;P2;SDS_P1;SDS_P2;PMS_P1;PMS_P2;Temp;Humidity;BMP_temperature;BMP_pressure;BME280_temperature;BME280_humidity;BME280_pressure;Samples;Min_cycle;Max_cycle;Signal;HPM_P1;HPM_P2
2021/12/31 00:00:19;;;;;;;;;;;;;;;15.42;71.16;101293.44;1045053;28;782;-59
2021/12/31 00:01:09;;;;;;;;;;;;;;;15.42;70.91;101293.44;1045165;28;845;-59
2021/12/31 00:02:00;;;;;;;;;;;;;;;15.42;71.09;101304.19;1045094;28;720;-59
2021/12/31 00:02:50;;;;;;;;;;;;;;;15.42;71.40;101296.13;1045104;28;775;-59
2021/12/31 00:03:40;;;;;;;;;;;;;;;15.42;71.24;101295.28;1045148;28;685;-59
2021/12/31 00:04:31;;;;;;;;;;;;;;;15.41;71.00;101294.41;1045073;28;689;-59
2021/12/31 00:05:21;;;;;;;;;;;;;;;15.41;71.53;101297.09;1045169;28;1157;-59
2021/12/31 00:06:12;;;;;;;;;;;;;;;15.40;71.40;101303.50;1045103;28;728;-58
2021/12/31 00:07:02;;;;;;;;;;;;;;;15.40;71.16;101300.81;1045115;28;914;-59
2021/12/31 00:07:53;;;;;;;;;;;;;;;15.40;70.89;101298.13;1045208;28;831;-59
2021/12/31 00:08:43;;;;;;;;;;;;;;;15.40;71.13;101294.56;1045110;28;773;-59
2021/12/31 00:09:33;;;;;;;;;;;;;;;15.40;70.97;101295.44;1045207;28;1065;-59
2021/12/31 00:10:24;;;;;;;;;;;;;;;15.40;71.23;101303.50;1045072;28;718;-59
2021/12/31 00:11:14;;;;;;;;;;;;;;;15.38;71.04;101294.69;1045171;28;757;-59
2021/12/31 00:12:05;;;;;;;;;;;;;;;15.39;71.02;101293.72;1045116;28;1224;-58
2021/12/31 00:12:56;;;;;;;;;;;;;;;15.38;71.14;101309.94;1045212;28;637;-58
2021/12/31 00:13:47;;;;;;;;;;;;;;;15.38;71.30;101308.13;1045151;28;669;-58
2021/12/31 00:14:37;;;;;;;;;;;;;;;15.39;71.34;101301.78;1044648;28;677;-58
2021/12/31 00:15:27;;;;;;;;;;;;;;;15.38;70.89;101297.38;1045009;28;1354;-53
2021/12/31 00:16:18;;;;;;;;;;;;;;;15.38;71.23;101302.75;1045197;28;779;-53
2021/12/31 00:17:08;;;;;;;;;;;;;;;15.39;71.11;101301.78;1045216;28;1967;-55
2021/12/31 00:17:59;;;;;;;;;;;;;;;15.39;71.36;101300.91;1045127;28;681;-55
2021/12/31 00:18:49;;;;;;;;;;;;;;;15.38;71.29;101300.06;1045237;28;732;-56
2021/12/31 00:19:44;;;;;;;;;;;;;;;15.39;71.40;101299.09;1044970;28;708;-56
2021/12/31 00:20:35;;;;;;;;;;;;;;;15.38;71.22;101300.06;1044703;28;661;-55
2021/12/31 00:21:25;;;;;;;;;;;;;;;15.38;71.05;101297.38;1045258;28;753;-55
2021/12/31 00:22:44;;;;;;;;;;;;;;;15.37;71.40;101305.56;1041225;28;810;-54
2021/12/31 00:23:27;;;;;;;;;;;;;;;15.38;71.21;101313.50;1041324;28;788;-56
2021/12/31 00:24:17;;;;;;;;;;;;;;;15.37;71.32;101305.56;1045182;28;739;-55
2021/12/31 00:25:08;;;;;;;;;;;;;;;15.38;71.04;101309.94;1045084;28;794;-56
2021/12/31 00:25:58;;;;;;;;;;;;;;;15.37;71.27;101311.78;1041264;28;928;-58
2021/12/31 00:26:49;;;;;;;;;;;;;;;15.37;71.54;101313.59;1041324;28;711;-58
2021/12/31 00:27:39;;;;;;;;;;;;;;;15.37;71.28;101322.53;1044991;28;622;-58
2021/12/31 00:28:29;;;;;;;;;;;;;;;15.37;71.37;101318.97;1045136;28;685;-58
2021/12/31 00:29:20;;;;;;;;;;;;;;;15.36;71.05;101315.44;1045039;28;854;-58
2021/12/31 00:30:10;;;;;;;;;;;;;;;15.35;71.37;101319.09;1045052;28;863;-58
2021/12/31 00:31:01;;;;;;;;;;;;;;;15.35;71.62;101323.59;1045063;28;783;-58
2021/12/31 00:31:52;;;;;;;;;;;;;;;15.35;71.61;101316.41;1044885;28;910;-58
2021/12/31 00:32:42;;;;;;;;;;;;;;;15.35;71.51;101326.28;1045105;28;992;-58
2021/12/31 00:33:32;;;;;;;;;;;;;;;15.35;71.18;101318.25;1045227;28;629;-58
2021/12/31 00:34:23;;;;;;;;;;;;;;;15.34;71.07;101325.44;1044340;28;2273;-58
2021/12/31 00:35:13;;;;;;;;;;;;;;;15.34;71.36;101330.81;1041531;28;688;-58
2021/12/31 00:36:04;;;;;;;;;;;;;;;15.34;71.46;101328.13;1040937;28;661;-58
2021/12/31 00:36:54;;;;;;;;;;;;;;;15.34;71.42;101322.75;1041489;28;1898;-58
2021/12/31 00:37:44;;;;;;;;;;;;;;;15.34;71.35;101319.22;1043245;28;1885;-59
2021/12/31 00:38:35;;;;;;;;;;;;;;;15.34;71.08;101308.47;1045091;28;950;-58
2021/12/31 00:39:25;;;;;;;;;;;;;;;15.34;71.32;101319.22;1045203;28;766;-59
2021/12/31 00:40:16;;;;;;;;;;;;;;;15.33;71.28;101318.34;1045711;28;772;-60
2021/12/31 00:41:06;;;;;;;;;;;;;;;15.31;71.58;101317.59;1045133;28;789;-60
2021/12/31 00:41:56;;;;;;;;;;;;;;;15.32;71.35;101321.16;1045209;28;650;-59
2021/12/31 00:42:47;;;;;;;;;;;;;;;15.32;71.53;101319.31;1045014;28;987;-60
2021/12/31 00:43:37;;;;;;;;;;;;;;;15.31;71.21;101314.94;1045186;28;673;-59
2021/12/31 00:44:28;;;;;;;;;;;;;;;15.32;71.24;101313.09;1045025;28;827;-59
2021/12/31 00:45:18;;;;;;;;;;;;;;;15.32;71.36;101311.25;1045005;28;697;-60
2021/12/31 00:46:08;;;;;;;;;;;;;;;15.32;71.51;101313.94;1045173;28;712;-60
2021/12/31 00:46:59;;;;;;;;;;;;;;;15.32;71.20;101319.31;1045058;28;757;-60
2021/12/31 00:47:49;;;;;;;;;;;;;;;15.33;71.54;101314.81;1045139;28;617;-60
2021/12/31 00:48:40;;;;;;;;;;;;;;;15.33;71.24;101320.19;1045056;28;928;-60
2021/12/31 00:49:30;;;;;;;;;;;;;;;15.32;71.56;101323.84;1045010;28;648;-59
2021/12/31 00:50:21;;;;;;;;;;;;;;;15.34;71.19;101319.22;1045059;28;781;-59
2021/12/31 00:51:11;;;;;;;;;;;;;;;15.33;71.43;101315.66;1044997;28;860;-59
2021/12/31 00:52:01;;;;;;;;;;;;;;;15.33;71.51;101321.03;1045949;28;758;-59
2021/12/31 00:52:52;;;;;;;;;;;;;;;15.32;71.25;101313.94;1045773;28;849;-59
2021/12/31 00:53:42;;;;;;;;;;;;;;;15.33;71.36;101310.28;1045263;28;685;-59
2021/12/31 00:54:33;;;;;;;;;;;;;;;15.33;71.29;101312.13;1045695;28;669;-59
2021/12/31 00:55:23;;;;;;;;;;;;;;;15.34;71.42;101313.84;1045749;28;858;-59
2021/12/31 00:56:13;;;;;;;;;;;;;;;15.34;71.52;101311.16;1045981;28;700;-59
2021/12/31 00:57:04;;;;;;;;;;;;;;;15.33;71.35;101306.75;1045591;28;1890;-58
2021/12/31 00:57:54;;;;;;;;;;;;;;;15.33;71.41;101317.50;1045872;28;712;-58
2021/12/31 00:58:45;;;;;;;;;;;;;;;15.34;71.55;101316.53;1045705;28;641;-58
2021/12/31 00:59:35;;;;;;;;;;;;;;;15.32;71.66;101311.25;1045756;28;753;-59
2021/12/31 01:00:26;;;;;;;;;;;;;;;15.32;71.63;101305.91;1045450;28;1066;-59
2021/12/31 01:01:19;;;;;;;;;;;;;;;15.31;71.42;101301.50;1045699;28;768;-59
2021/12/31 01:02:13;;;;;;;;;;;;;;;15.31;71.89;101312.25;1045780;28;697;-59
2021/12/31 01:03:04;;;;;;;;;;;;;;;15.30;71.46;101310.53;1045718;28;712;-59
2021/12/31 01:03:54;;;;;;;;;;;;;;;15.31;71.37;101314.06;1045842;28;692;-58
2021/12/31 01:04:45;;;;;;;;;;;;;;;15.31;71.76;101314.06;1045699;28;697;-58
2021/12/31 01:05:35;;;;;;;;;;;;;;;15.31;71.81;101309.56;1045724;28;730;-58
2021/12/31 01:06:25;;;;;;;;;;;;;;;15.31;71.54;101311.38;1045864;28;778;-59
2021/12/31 01:07:16;;;;;;;;;;;;;;;15.29;71.75;101309.66;1045715;28;803;-59
2021/12/31 01:08:06;;;;;;;;;;;;;;;15.29;71.39;101311.50;1045810;28;775;-58
2021/12/31 01:08:57;;;;;;;;;;;;;;;15.29;71.66;101308.81;1045610;28;689;-58
2021/12/31 01:09:47;;;;;;;;;;;;;;;15.29;71.59;101308.81;1045709;28;825;-59
2021/12/31 01:10:38;;;;;;;;;;;;;;;15.29;71.44;101308.81;1045845;28;629;-58
2021/12/31 01:11:28;;;;;;;;;;;;;;;15.28;71.52;101312.47;1045776;28;783;-59
2021/12/31 01:12:18;;;;;;;;;;;;;;;15.29;71.87;101308.81;1045616;28;1336;-59
2021/12/31 01:13:14;;;;;;;;;;;;;;;15.28;72.02;101305.28;1045752;28;720;-58
2021/12/31 01:14:08;;;;;;;;;;;;;;;15.29;71.35;101319.56;1045558;28;892;-60
2021/12/31 01:15:03;;;;;;;;;;;;;;;15.29;71.58;101311.50;1045038;28;1005;-59
2021/12/31 01:15:58;;;;;;;;;;;;;;;15.28;71.48;101309.78;1045625;28;863;-59
2021/12/31 01:16:56;;;;;;;;;;;;;;;15.27;72.00;101306.25;1045014;28;666;-59
2021/12/31 01:19:46;;;;;;;;;;;;;;;15.26;71.28;101309.03;1045781;28;767;-59
2021/12/31 01:20:36;;;;;;;;;;;;;;;15.26;71.93;101304.53;1045669;28;1136;-59
2021/12/31 01:21:26;;;;;;;;;;;;;;;15.25;71.36;101308.19;1042231;28;793;-59
2021/12/31 01:22:17;;;;;;;;;;;;;;;15.26;71.75;101301.00;1042615;28;853;-60
2021/12/31 01:23:09;;;;;;;;;;;;;;;15.26;71.87;101311.72;1041704;28;737;-59
2021/12/31 01:24:00;;;;;;;;;;;;;;;15.26;71.73;101312.59;1042206;28;728;-60
2021/12/31 01:24:51;;;;;;;;;;;;;;;15.26;71.99;101311.72;1042067;28;820;-59
2021/12/31 01:25:41;;;;;;;;;;;;;;;15.25;71.61;101310.03;1042077;28;753;-59
2021/12/31 01:26:32;;;;;;;;;;;;;;;15.24;71.34;101303.78;1042072;28;863;-59
2021/12/31 01:27:23;;;;;;;;;;;;;;;15.24;72.04;101303.78;1042147;28;855;-59
2021/12/31 01:28:13;;;;;;;;;;;;;;;15.24;71.93;101301.09;1042116;28;747;-60
2021/12/31 01:29:04;;;;;;;;;;;;;;;15.24;71.56;101325.28;1042201;28;719;-59
2021/12/31 01:29:54;;;;;;;;;;;;;;;15.25;71.86;101323.44;1042165;28;692;-59
2021/12/31 01:30:45;;;;;;;;;;;;;;;15.25;71.49;101312.69;1042036;28;902;-59
2021/12/31 01:31:35;;;;;;;;;;;;;;;15.25;71.44;101312.69;1042170;28;617;-59
2021/12/31 01:32:26;;;;;;;;;;;;;;;15.25;71.69;101324.31;1042026;28;746;-58
2021/12/31 01:33:16;;;;;;;;;;;;;;;15.25;71.26;101321.63;1042136;28;741;-59
2021/12/31 01:34:07;;;;;;;;;;;;;;;15.25;71.28;101326.13;1042168;28;769;-59
2021/12/31 01:34:57;;;;;;;;;;;;;;;15.25;72.05;101316.25;1042210;28;765;-59
2021/12/31 01:35:48;;;;;;;;;;;;;;;15.26;71.55;101317.09;1042031;28;747;-59
2021/12/31 01:36:38;;;;;;;;;;;;;;;15.26;71.62;101325.16;1042049;28;938;-59
2021/12/31 01:37:28;;;;;;;;;;;;;;;15.25;71.80;101334.19;1042001;28;821;-59
2021/12/31 01:38:19;;;;;;;;;;;;;;;15.25;71.92;101323.44;1041551;28;719;-59
2021/12/31 01:39:10;;;;;;;;;;;;;;;15.25;71.77;101323.44;1042002;28;789;-59
2021/12/31 01:40:00;;;;;;;;;;;;;;;15.24;71.81;101322.59;1043216;28;814;-58
2021/12/31 01:40:51;;;;;;;;;;;;;;;15.24;72.18;101325.28;1043362;28;626;-58
2021/12/31 01:41:41;;;;;;;;;;;;;;;15.24;71.82;101327.97;1043307;28;939;-59
2021/12/31 01:42:33;;;;;;;;;;;;;;;15.24;71.78;101321.72;1043129;28;645;-59
2021/12/31 01:43:24;;;;;;;;;;;;;;;15.23;71.64;101328.06;1042035;28;834;-59
2021/12/31 01:44:14;;;;;;;;;;;;;;;15.23;71.54;101320.00;1043267;28;732;-59
2021/12/31 01:45:05;;;;;;;;;;;;;;;15.23;71.74;101325.38;1042926;28;800;-58
2021/12/31 01:45:55;;;;;;;;;;;;;;;15.23;71.70;101325.38;1043190;28;698;-59
2021/12/31 01:46:46;;;;;;;;;;;;;;;15.23;71.64;101322.69;1041393;28;619;-58
2021/12/31 01:47:55;;;;;;;;;;;;;;;15.22;71.44;101319.19;1043253;28;1050;-59
2021/12/31 01:49:58;;;;;;;;;;;;;;;15.23;71.71;101325.38;1041328;28;896;-59
2021/12/31 01:50:49;;;;;;;;;;;;;;;15.22;71.77;101331.75;1037554;28;678;-58
2021/12/31 01:51:40;;;;;;;;;;;;;;;15.22;71.88;101329.94;1037603;28;778;-59
2021/12/31 01:52:30;;;;;;;;;;;;;;;15.22;71.58;101334.44;1041955;28;617;-58
2021/12/31 01:53:22;;;;;;;;;;;;;;;15.21;71.89;101336.28;1043149;28;799;-59
2021/12/31 01:54:12;;;;;;;;;;;;;;;15.20;71.63;101337.25;1042041;28;731;-59
2021/12/31 01:55:03;;;;;;;;;;;;;;;15.22;71.77;101334.44;1043182;28;788;-58
2021/12/31 01:55:53;;;;;;;;;;;;;;;15.22;72.03;101331.75;1043152;28;769;-58
2021/12/31 01:56:43;;;;;;;;;;;;;;;15.21;71.66;101327.34;1043271;28;727;-59
2021/12/31 01:57:34;;;;;;;;;;;;;;;15.21;72.02;101338.97;1043274;28;914;-59
2021/12/31 01:58:24;;;;;;;;;;;;;;;15.20;71.69;101329.19;1043083;28;677;-58
2021/12/31 01:59:15;;;;;;;;;;;;;;;15.20;71.48;101329.19;1043146;28;730;-59
2021/12/31 02:00:05;;;;;;;;;;;;;;;15.21;72.05;101335.41;1043169;28;774;-59
2021/12/31 02:00:55;;;;;;;;;;;;;;;15.21;71.97;101338.09;1043065;28;592;-58
2021/12/31 02:01:46;;;;;;;;;;;;;;;15.20;71.65;101337.25;1041356;28;925;-59
2021/12/31 02:02:36;;;;;;;;;;;;;;;15.20;71.55;101322.97;1041411;28;975;-58
2021/12/31 02:03:27;;;;;;;;;;;;;;;15.21;71.54;101338.09;1042581;28;721;-58
2021/12/31 02:04:17;;;;;;;;;;;;;;;15.19;71.91;101327.47;1043208;28;764;-58
2021/12/31 02:05:07;;;;;;;;;;;;;;;15.21;72.03;101324.69;1043106;28;772;-58
2021/12/31 02:05:58;;;;;;;;;;;;;;;15.20;71.73;101326.50;1043114;28;815;-59
2021/12/31 02:06:48;;;;;;;;;;;;;;;15.20;71.88;101331.03;1041376;28;694;-58
2021/12/31 02:07:39;;;;;;;;;;;;;;;15.19;71.94;101324.78;1042878;28;729;-59
2021/12/31 02:08:29;;;;;;;;;;;;;;;15.20;71.97;101337.25;1043207;28;672;-58
2021/12/31 02:09:19;;;;;;;;;;;;;;;15.20;71.64;101328.34;1037563;28;798;-58
2021/12/31 02:10:10;;;;;;;;;;;;;;;15.20;71.67;101325.66;1038722;28;880;-58
2021/12/31 02:11:00;;;;;;;;;;;;;;;15.19;71.71;101326.63;1041905;28;753;-59
2021/12/31 02:11:51;;;;;;;;;;;;;;;15.19;71.67;101323.94;1042547;28;1452;-58
2021/12/31 02:12:42;;;;;;;;;;;;;;;15.19;71.84;101326.63;1042887;28;2021;-59
2021/12/31 02:13:33;;;;;;;;;;;;;;;15.19;72.09;101323.94;1042492;28;668;-58
2021/12/31 02:14:24;;;;;;;;;;;;;;;15.20;72.20;101320.28;1042985;28;886;-58
2021/12/31 02:15:15;;;;;;;;;;;;;;;15.19;71.92;101324.78;1041487;28;755;-59
2021/12/31 02:16:05;;;;;;;;;;;;;;;15.19;71.70;101318.56;1043058;28;717;-59
2021/12/31 02:16:55;;;;;;;;;;;;;;;15.18;71.94;101317.72;1042917;28;1917;-59
2021/12/31 02:17:47;;;;;;;;;;;;;;;15.19;72.13;101323.94;1043197;28;681;-59
2021/12/31 02:18:38;;;;;;;;;;;;;;;15.18;71.92;101320.41;1041901;28;847;-59
2021/12/31 02:19:29;;;;;;;;;;;;;;;15.18;71.98;101323.06;1037605;28;728;-60
2021/12/31 02:20:19;;;;;;;;;;;;;;;15.18;71.75;101327.59;1037623;28;735;-59
2021/12/31 02:21:10;;;;;;;;;;;;;;;15.18;72.02;101322.22;1042974;28;709;-59
2021/12/31 02:22:01;;;;;;;;;;;;;;;15.17;71.65;101324.06;1042005;28;760;-58
2021/12/31 02:23:04;;;;;;;;;;;;;;;15.17;71.73;101326.72;1041239;28;773;-58
2021/12/31 02:24:02;;;;;;;;;;;;;;;15.18;72.46;101322.22;1041844;28;724;-58
2021/12/31 02:24:53;;;;;;;;;;;;;;;15.18;72.29;101319.53;1041921;28;779;-59
2021/12/31 02:25:43;;;;;;;;;;;;;;;15.17;71.95;101321.38;1041857;28;694;-58
2021/12/31 02:26:34;;;;;;;;;;;;;;;15.18;71.99;101322.22;1043036;28;648;-59
2021/12/31 02:27:24;;;;;;;;;;;;;;;15.18;72.09;101328.44;1043120;28;692;-58
2021/12/31 02:28:15;;;;;;;;;;;;;;;15.17;72.16;101332.09;1043276;28;771;-58
2021/12/31 02:29:06;;;;;;;;;;;;;;;15.16;72.14;101330.38;1041835;28;737;-58
2021/12/31 02:29:56;;;;;;;;;;;;;;;15.17;72.25;101325.88;1043092;28;644;-59
2021/12/31 02:30:47;;;;;;;;;;;;;;;15.16;71.82;101330.38;1041395;28;1463;-58
2021/12/31 02:31:37;;;;;;;;;;;;;;;15.16;72.30;101322.34;1043019;28;777;-58
2021/12/31 02:32:27;;;;;;;;;;;;;;;15.16;72.02;101325.03;1037602;28;828;-58
2021/12/31 02:33:18;;;;;;;;;;;;;;;15.18;71.64;101335.66;1038707;28;841;-58
2021/12/31 02:34:08;;;;;;;;;;;;;;;15.17;71.93;101328.56;1042969;28;731;-58
2021/12/31 02:34:59;;;;;;;;;;;;;;;15.17;72.10;101324.06;1042925;28;942;-59
2021/12/31 02:35:49;;;;;;;;;;;;;;;15.19;71.76;101332.00;1043032;28;621;-58
2021/12/31 02:36:39;;;;;;;;;;;;;;;15.17;72.23;101321.38;1043014;28;676;-58
2021/12/31 02:37:30;;;;;;;;;;;;;;;15.18;72.00;101330.28;1043021;28;925;-59
2021/12/31 02:38:20;;;;;;;;;;;;;;;15.18;71.94;101327.59;1041885;28;707;-58
2021/12/31 02:39:11;;;;;;;;;;;;;;;15.18;71.95;101322.22;1041248;28;749;-59
2021/12/31 02:40:01;;;;;;;;;;;;;;;15.17;72.00;101320.50;1041326;28;779;-58
2021/12/31 02:40:52;;;;;;;;;;;;;;;15.18;72.17;101324.91;1041438;28;716;-58
2021/12/31 02:41:44;;;;;;;;;;;;;;;15.18;72.14;101332.97;1041218;28;839;-58
2021/12/31 02:42:34;;;;;;;;;;;;;;;15.17;71.92;101331.25;1041280;28;653;-58
2021/12/31 02:43:24;;;;;;;;;;;;;;;15.17;71.97;101331.25;1041359;28;751;-59
2021/12/31 02:44:15;;;;;;;;;;;;;;;15.17;71.66;101328.56;1041217;28;743;-60
2021/12/31 02:45:07;;;;;;;;;;;;;;;15.14;72.31;101332.34;1041274;28;817;-59
2021/12/31 02:45:57;;;;;;;;;;;;;;;15.16;72.01;101330.38;1041339;28;782;-59
2021/12/31 02:46:48;;;;;;;;;;;;;;;15.16;72.24;101334.91;1041258;28;692;-59
2021/12/31 02:47:43;;;;;;;;;;;;;;;15.15;72.05;101323.31;1041137;28;851;-59
2021/12/31 02:48:33;;;;;;;;;;;;;;;15.15;72.31;101327.81;1041239;28;661;-59
2021/12/31 02:49:24;;;;;;;;;;;;;;;15.14;72.36;101318.91;1041188;28;724;-59
2021/12/31 02:50:15;;;;;;;;;;;;;;;15.16;72.30;101327.69;1041262;28;831;-59
2021/12/31 02:51:06;;;;;;;;;;;;;;;15.16;72.38;101318.78;1041307;28;843;-59
2021/12/31 02:52:02;;;;;;;;;;;;;;;15.15;72.25;101317.09;1040190;28;818;-59
2021/12/31 02:52:52;;;;;;;;;;;;;;;15.15;72.08;101325.13;1041240;28;724;-60
2021/12/31 02:53:43;;;;;;;;;;;;;;;15.15;71.91;101322.44;1040277;28;638;-59
2021/12/31 02:54:33;;;;;;;;;;;;;;;15.14;72.06;101320.75;1040168;28;736;-59
2021/12/31 02:55:24;;;;;;;;;;;;;;;15.13;72.16;101325.25;1041212;28;732;-59
2021/12/31 02:56:16;;;;;;;;;;;;;;;15.14;72.37;101328.78;1041186;28;926;-59
2021/12/31 02:57:07;;;;;;;;;;;;;;;15.14;72.33;101320.75;1041234;28;1902;-59
2021/12/31 02:57:57;;;;;;;;;;;;;;;15.14;72.08;101321.59;1041186;28;937;-59
2021/12/31 02:58:47;;;;;;;;;;;;;;;15.15;72.28;101327.81;1041280;28;736;-59
2021/12/31 02:59:38;;;;;;;;;;;;;;;15.13;72.03;101317.19;1041060;28;641;-59
2021/12/31 03:00:28;;;;;;;;;;;;;;;15.14;72.43;101329.66;1041075;28;989;-59
2021/12/31 03:01:19;;;;;;;;;;;;;;;15.15;71.71;101333.19;1041264;28;691;-59
2021/12/31 03:02:09;;;;;;;;;;;;;;;15.15;72.10;101322.44;1041117;28;783;-59
2021/12/31 03:03:00;;;;;;;;;;;;;;;15.14;72.31;101326.97;1041341;28;725;-60
2021/12/31 03:03:50;;;;;;;;;;;;;;;15.15;72.28;101327.81;1041061;28;794;-59
2021/12/31 03:04:41;;;;;;;;;;;;;;;15.13;72.14;101327.94;1040058;28;820;-59
2021/12/31 03:05:31;;;;;;;;;;;;;;;15.14;72.37;101331.47;1041117;28;697;-58
2021/12/31 03:06:21;;;;;;;;;;;;;;;15.13;72.29;101329.75;1041238;28;784;-58
2021/12/31 03:07:12;;;;;;;;;;;;;;;15.12;72.29;101328.91;1041140;28;758;-58
2021/12/31 03:08:02;;;;;;;;;;;;;;;15.13;72.29;101329.75;1041190;28;984;-58
2021/12/31 03:08:53;;;;;;;;;;;;;;;15.13;71.92;101335.13;1041119;28;770;-59
2021/12/31 03:09:43;;;;;;;;;;;;;;;15.14;72.07;101320.75;1041221;28;642;-58
2021/12/31 03:10:34;;;;;;;;;;;;;;;15.13;72.40;101325.25;1041072;28;861;-59
2021/12/31 03:11:24;;;;;;;;;;;;;;;15.14;72.35;101320.75;1041124;28;598;-59
2021/12/31 03:12:15;;;;;;;;;;;;;;;15.13;72.43;101321.72;1041158;28;1295;-59
2021/12/31 03:13:05;;;;;;;;;;;;;;;15.12;71.83;101320.00;1041145;28;849;-59
2021/12/31 03:13:55;;;;;;;;;;;;;;;15.12;72.52;101318.16;1041293;28;808;-58
2021/12/31 03:14:46;;;;;;;;;;;;;;;15.12;72.29;101325.38;1041269;28;763;-58
2021/12/31 03:15:36;;;;;;;;;;;;;;;15.12;72.22;101322.69;1040803;28;1031;-58
2021/12/31 03:16:27;;;;;;;;;;;;;;;15.12;72.22;101322.69;1041322;28;795;-58
2021/12/31 03:17:17;;;;;;;;;;;;;;;15.11;72.40;101312.91;1040885;28;1976;-58
2021/12/31 03:18:07;;;;;;;;;;;;;;;15.11;72.25;101313.78;1041114;28;689;-59
2021/12/31 03:18:58;;;;;;;;;;;;;;;15.11;72.09;101310.22;1041078;28;634;-59
2021/12/31 03:19:48;;;;;;;;;;;;;;;15.11;72.29;101311.09;1041017;28;768;-59
2021/12/31 03:20:46;;;;;;;;;;;;;;;15.10;72.52;101311.19;1041236;28;736;-59
2021/12/31 03:21:37;;;;;;;;;;;;;;;15.11;72.45;101303.03;1041755;28;701;-59
2021/12/31 03:22:27;;;;;;;;;;;;;;;15.11;72.03;101307.53;1040443;28;720;-59
2021/12/31 03:23:17;;;;;;;;;;;;;;;15.12;72.34;101311.94;1041540;28;976;-59
2021/12/31 03:24:08;;;;;;;;;;;;;;;15.11;71.88;101305.72;1040289;28;669;-58
2021/12/31 03:24:58;;;;;;;;;;;;;;;15.11;72.39;101296.81;1041767;28;641;-59
2021/12/31 03:25:49;;;;;;;;;;;;;;;15.10;72.06;101303.16;1041812;28;746;-58
2021/12/31 03:26:39;;;;;;;;;;;;;;;15.11;72.58;101296.81;1041598;28;663;-58
2021/12/31 03:27:30;;;;;;;;;;;;;;;15.11;72.24;101294.13;1041580;28;825;-59
2021/12/31 03:28:20;;;;;;;;;;;;;;;15.10;72.48;101293.25;1041710;28;813;-57
2021/12/31 03:29:10;;;;;;;;;;;;;;;15.11;72.27;101294.13;1041741;28;748;-58
2021/12/31 03:30:01;;;;;;;;;;;;;;;15.10;72.17;101295.94;1041698;28;779;-60
2021/12/31 03:30:51;;;;;;;;;;;;;;;15.11;71.95;101296.81;1041735;28;804;-59
2021/12/31 03:31:42;;;;;;;;;;;;;;;15.11;72.43;101294.13;1041580;28;838;-59
2021/12/31 03:32:32;;;;;;;;;;;;;;;15.10;72.39;101285.22;1040579;28;645;-60
2021/12/31 03:33:23;;;;;;;;;;;;;;;15.10;72.29;101295.09;1041850;28;731;-59
2021/12/31 03:34:14;;;;;;;;;;;;;;;15.10;72.40;101289.72;1041674;28;854;-59
2021/12/31 03:35:04;;;;;;;;;;;;;;;15.11;72.42;101288.75;1041720;28;743;-59
2021/12/31 03:35:55;;;;;;;;;;;;;;;15.11;72.20;101302.19;1040366;28;936;-59
2021/12/31 03:36:45;;;;;;;;;;;;;;;15.10;71.73;101290.59;1041590;28;614;-59
2021/12/31 03:37:36;;;;;;;;;;;;;;;15.10;71.91;101292.41;1040986;28;1778;-58
2021/12/31 03:38:26;;;;;;;;;;;;;;;15.11;72.51;101291.44;1042902;28;684;-58
2021/12/31 03:39:17;;;;;;;;;;;;;;;15.10;72.10;101304.00;1042740;28;748;-58
2021/12/31 03:40:07;;;;;;;;;;;;;;;15.11;72.52;101286.06;1042830;28;825;-58
2021/12/31 03:40:57;;;;;;;;;;;;;;;15.11;72.50;101289.59;1042846;28;656;-57
2021/12/31 03:41:48;;;;;;;;;;;;;;;15.10;71.99;101293.25;1042915;28;948;-57
2021/12/31 03:42:40;;;;;;;;;;;;;;;15.09;72.33;101288.88;1042526;28;810;-58
2021/12/31 03:43:30;;;;;;;;;;;;;;;15.10;72.17;101293.25;1042764;28;680;-58
2021/12/31 03:44:20;;;;;;;;;;;;;;;15.09;72.48;101288.00;1042772;28;833;-57
2021/12/31 03:45:11;;;;;;;;;;;;;;;15.09;72.36;101291.56;1042960;28;740;-57
2021/12/31 03:46:01;;;;;;;;;;;;;;;15.09;72.08;101291.56;1042696;28;919;-57
2021/12/31 03:46:52;;;;;;;;;;;;;;;15.10;72.50;101295.09;1042751;28;645;-58
2021/12/31 03:47:42;;;;;;;;;;;;;;;15.10;72.03;101292.41;1042861;28;649;-58
2021/12/31 03:48:33;;;;;;;;;;;;;;;15.10;71.93;101292.41;1041000;28;786;-58
2021/12/31 03:49:23;;;;;;;;;;;;;;;15.10;72.39;101297.78;1042908;28;742;-57
2021/12/31 03:50:13;;;;;;;;;;;;;;;15.08;72.23;101295.22;1042781;28;807;-58
2021/12/31 03:51:04;;;;;;;;;;;;;;;15.09;72.32;101290.69;1040985;28;697;-57
2021/12/31 03:51:54;;;;;;;;;;;;;;;15.08;72.33;101288.97;1042802;28;710;-58
2021/12/31 03:52:45;;;;;;;;;;;;;;;15.08;72.10;101287.16;1042647;28;894;-58
2021/12/31 03:53:35;;;;;;;;;;;;;;;15.09;72.30;101296.06;1042758;28;712;-57
2021/12/31 03:54:26;;;;;;;;;;;;;;;15.08;72.61;101297.03;1042592;28;746;-58
2021/12/31 03:55:16;;;;;;;;;;;;;;;15.08;72.67;101297.88;1042939;28;811;-57
2021/12/31 03:56:06;;;;;;;;;;;;;;;15.08;72.11;101299.72;1042798;28;824;-56
2021/12/31 03:56:57;;;;;;;;;;;;;;;15.08;72.32;101294.34;1042720;28;854;-57
2021/12/31 03:57:47;;;;;;;;;;;;;;;15.09;72.00;101288.00;1042806;28;676;-58
2021/12/31 03:58:38;;;;;;;;;;;;;;;15.07;72.08;101290.81;1042736;28;792;-55
2021/12/31 03:59:28;;;;;;;;;;;;;;;15.07;72.61;101298.00;1042906;28;730;-53
2021/12/31 04:00:18;;;;;;;;;;;;;;;15.06;72.50;101289.09;1042726;28;797;-54
2021/12/31 04:01:09;;;;;;;;;;;;;;;15.07;72.55;101298.00;1042883;28;739;-57
2021/12/31 04:01:59;;;;;;;;;;;;;;;15.07;72.56;101298.88;1042755;28;820;-59
2021/12/31 04:02:50;;;;;;;;;;;;;;;15.06;72.49;101301.66;1042568;28;791;-58
2021/12/31 04:03:40;;;;;;;;;;;;;;;15.07;72.25;101300.69;1042735;28;712;-57
2021/12/31 04:04:31;;;;;;;;;;;;;;;15.07;72.19;101300.69;1042587;28;707;-60
2021/12/31 04:05:21;;;;;;;;;;;;;;;15.07;72.46;101298.88;1042718;28;1004;-57
2021/12/31 04:06:11;;;;;;;;;;;;;;;15.07;72.52;101295.31;1042832;28;707;-55
2021/12/31 04:07:02;;;;;;;;;;;;;;;15.07;72.49;101301.53;1042590;28;949;-56
2021/12/31 04:07:52;;;;;;;;;;;;;;;15.08;72.24;101291.66;1036683;28;842;-57
2021/12/31 04:08:43;;;;;;;;;;;;;;;15.07;72.06;101287.28;1038285;28;671;-56
2021/12/31 04:09:33;;;;;;;;;;;;;;;15.06;72.46;101298.97;1042243;28;701;-57
2021/12/31 04:10:25;;;;;;;;;;;;;;;15.06;72.52;101291.78;1042723;28;797;-58
2021/12/31 04:11:16;;;;;;;;;;;;;;;15.07;72.07;101289.94;1042644;28;956;-57
2021/12/31 04:12:06;;;;;;;;;;;;;;;15.07;72.26;101295.31;1040886;28;1434;-58
2021/12/31 04:12:56;;;;;;;;;;;;;;;15.07;72.40;101287.28;1042799;28;749;-57
2021/12/31 04:13:47;;;;;;;;;;;;;;;15.06;72.02;101291.78;1042924;28;709;-58
2021/12/31 04:14:37;;;;;;;;;;;;;;;15.07;72.07;101287.28;1042792;28;672;-58
2021/12/31 04:15:28;;;;;;;;;;;;;;;15.06;72.25;101286.41;1040892;28;910;-57
2021/12/31 04:16:18;;;;;;;;;;;;;;;15.07;72.12;101289.94;1042750;28;743;-58
2021/12/31 04:17:09;;;;;;;;;;;;;;;15.06;72.32;101281.03;1040986;28;1913;-58
2021/12/31 04:17:59;;;;;;;;;;;;;;;15.05;72.23;101287.38;1042787;28;653;-58
2021/12/31 04:18:49;;;;;;;;;;;;;;;15.06;72.29;101283.72;1042767;28;761;-58
2021/12/31 04:19:42;;;;;;;;;;;;;;;15.06;72.26;101280.19;1042490;28;712;-58
2021/12/31 04:20:42;;;;;;;;;;;;;;;15.07;72.46;101281.91;1042779;28;694;-58
2021/12/31 04:21:33;;;;;;;;;;;;;;;15.06;72.64;101280.19;1041482;28;717;-59
2021/12/31 04:22:26;;;;;;;;;;;;;;;15.06;72.36;101272.13;1041110;28;731;-59
2021/12/31 04:23:28;;;;;;;;;;;;;;;15.06;72.37;101291.78;1041099;28;736;-57
2021/12/31 04:25:19;;;;;;;;;;;;;;;15.05;72.26;101282.00;1040519;28;713;-57
2021/12/31 04:25:39;;;;;;;;;;;;;;;15.06;72.30;101278.38;1036258;28;1266;-57
2021/12/31 04:26:29;;;;;;;;;;;;;;;15.05;71.93;101282.00;1041507;28;1800;-58
2021/12/31 04:27:19;;;;;;;;;;;;;;;15.06;72.45;101280.19;1042564;28;1506;-56
2021/12/31 04:28:10;;;;;;;;;;;;;;;15.06;72.48;101282.88;1041376;28;1750;-58
2021/12/31 04:29:01;;;;;;;;;;;;;;;15.07;72.30;101276.53;1041028;28;701;-58
2021/12/31 04:29:52;;;;;;;;;;;;;;;15.06;72.23;101280.19;1045604;28;1500;-57
2021/12/31 04:30:42;;;;;;;;;;;;;;;15.07;72.58;101279.22;1045755;28;1438;-57
2021/12/31 04:31:33;;;;;;;;;;;;;;;15.06;72.74;101286.41;1042805;28;713;-58